createdAt,value
2022-08-17T00:00:00.555Z,8.90
2022-08-17T00:02:27.566Z,11.15
2022-08-17T00:04:55.789Z,10.57
2022-08-17T00:07:23.295Z,9.68
2022-08-17T00:09:50.473Z,9.23
2022-08-17T00:12:40.695Z,9.50
2022-08-17T00:15:06.096Z,10.10
2022-08-17T00:17:38.549Z,10.48
2022-08-17T00:20:06.268Z,8.40
2022-08-17T00:22:46.625Z,8.63
2022-08-17T00:25:17.822Z,10.85
2022-08-17T00:27:44.647Z,9.35
2022-08-17T00:30:12.853Z,10.02
2022-08-17T00:33:23.491Z,10.05
2022-08-17T00:35:33.009Z,9.80
2022-08-17T00:38:00.104Z,10.65
2022-08-17T00:40:27.096Z,10.60
2022-08-17T00:43:22.031Z,8.88
2022-08-17T00:45:49.462Z,9.93
2022-08-17T00:48:29.017Z,10.32
2022-08-17T00:51:00.278Z,10.43
2022-08-17T00:53:30.775Z,10.38
2022-08-17T00:56:01.986Z,10.98
2022-08-17T00:58:36.123Z,9.30
2022-08-17T01:01:05.902Z,9.73
2022-08-17T01:03:34.965Z,10.02
2022-08-17T01:06:04.670Z,9.48
2022-08-17T01:08:32.540Z,10.48
2022-08-17T01:11:02.396Z,10.43
2022-08-17T01:16:20.739Z,10.52
2022-08-17T01:18:52.288Z,11.13
2022-08-17T01:21:44.231Z,10.18
2022-08-17T01:24:11.122Z,9.18
2022-08-17T01:26:39.593Z,10.27
2022-08-17T01:29:07.110Z,10.13
2022-08-17T01:31:42.822Z,10.88
2022-08-17T01:34:12.263Z,10.60
2022-08-17T01:36:42.089Z,11.05
2022-08-17T01:41:46.563Z,10.13
2022-08-17T01:44:16.770Z,10.73
2022-08-17T01:46:43.722Z,11.52
2022-08-17T01:49:12.974Z,11.18
2022-08-17T01:51:40.070Z,11.07
2022-08-17T01:54:11.593Z,10.30
2022-08-17T01:56:41.760Z,10.75
2022-08-17T01:59:09.002Z,10.82
2022-08-17T02:01:37.216Z,10.07
2022-08-17T02:04:06.039Z,10.57
2022-08-17T02:06:53.787Z,9.82
2022-08-17T02:09:29.654Z,14.13
2022-08-17T02:11:59.390Z,10.52
2022-08-17T02:14:27.008Z,9.60
2022-08-17T02:16:54.446Z,10.07
2022-08-17T02:19:22.095Z,10.70
2022-08-17T02:21:52.278Z,10.30
2022-08-17T02:25:00.454Z,10.48
2022-08-17T02:27:15.191Z,10.65
2022-08-17T02:29:42.039Z,10.55
2022-08-17T02:32:25.461Z,9.93
2022-08-17T02:34:55.643Z,10.88
2022-08-17T02:37:22.500Z,10.02
2022-08-17T02:39:49.336Z,10.80
2022-08-17T02:42:16.191Z,10.20
2022-08-17T02:44:43.405Z,10.90
2022-08-17T02:47:11.320Z,10.95
2022-08-17T02:49:38.618Z,10.85
2022-08-17T02:52:07.727Z,11.18
2022-08-17T02:54:41.756Z,10.60
2022-08-17T02:57:10.401Z,11.43
2022-08-17T02:59:38.530Z,10.73
2022-08-17T03:02:07.333Z,10.88
2022-08-17T03:04:35.421Z,13.38
2022-08-17T03:07:03.819Z,11.45
2022-08-17T03:09:31.337Z,11.80
2022-08-17T03:12:11.328Z,10.70
2022-08-17T03:14:42.609Z,11.35
2022-08-17T03:17:11.173Z,9.88
2022-08-17T03:19:44.454Z,11.25
2022-08-17T03:22:35.922Z,11.13
2022-08-17T03:24:58.251Z,10.10
2022-08-17T03:27:25.115Z,11.05
2022-08-17T03:29:51.935Z,12.40
2022-08-17T03:32:20.828Z,11.13
2022-08-17T03:34:48.035Z,11.50
2022-08-17T03:37:15.227Z,10.30
2022-08-17T03:39:43.015Z,10.60
2022-08-17T03:42:31.605Z,9.68
2022-08-17T03:44:59.849Z,11.07
2022-08-17T03:47:45.052Z,11.43
2022-08-17T03:50:30.533Z,11.75
2022-08-17T03:53:16.009Z,11.43
2022-08-17T03:56:01.416Z,9.98
2022-08-17T03:58:28.391Z,10.27
2022-08-17T04:00:55.932Z,10.60
2022-08-17T04:03:22.860Z,10.70
2022-08-17T04:05:49.737Z,10.93
2022-08-17T04:08:16.522Z,9.70
2022-08-17T04:10:45.201Z,11.45
2022-08-17T04:13:12.942Z,11.50
2022-08-17T04:15:40.143Z,10.60
2022-08-17T04:18:07.715Z,10.98
2022-08-17T04:20:38.170Z,11.05
2022-08-17T04:23:11.878Z,10.68
2022-08-17T04:25:48.438Z,11.07
2022-08-17T04:28:16.646Z,10.73
2022-08-17T04:30:45.382Z,10.55
2022-08-17T04:33:18.270Z,12.10
2022-08-17T04:35:51.175Z,11.18
2022-08-17T04:38:21.633Z,11.07
2022-08-17T04:41:07.835Z,10.48
2022-08-17T04:43:37.030Z,11.55
2022-08-17T04:46:10.056Z,11.73
2022-08-17T04:48:43.040Z,11.45
2022-08-17T04:51:15.172Z,11.25
2022-08-17T04:53:54.438Z,11.20
2022-08-17T04:56:22.495Z,11.25
2022-08-17T04:58:51.089Z,10.40
2022-08-17T05:01:24.099Z,10.90
2022-08-17T05:03:56.789Z,10.55
2022-08-17T05:06:23.840Z,9.93
2022-08-17T05:08:50.817Z,12.07
2022-08-17T05:11:17.966Z,10.93
2022-08-17T05:13:44.944Z,10.48
2022-08-17T05:16:12.251Z,10.90
2022-08-17T05:18:39.347Z,10.27
2022-08-17T05:21:07.029Z,12.32
2022-08-17T05:23:42.109Z,11.45
2022-08-17T05:26:25.760Z,11.45
2022-08-17T05:29:00.574Z,11.48
2022-08-17T05:31:30.189Z,10.98
2022-08-17T05:33:57.465Z,11.57
2022-08-17T05:36:41.657Z,13.18
2022-08-17T05:39:17.001Z,11.23
2022-08-17T05:41:46.448Z,12.85
2022-08-17T05:44:13.321Z,12.40
2022-08-17T05:46:43.703Z,11.88
2022-08-17T05:49:23.674Z,12.30
2022-08-17T05:54:47.439Z,12.25
2022-08-17T05:57:53.727Z,12.20
2022-08-17T06:00:36.873Z,12.18
2022-08-17T06:03:19.199Z,11.63
2022-08-17T06:06:13.979Z,12.27
2022-08-17T06:08:58.921Z,12.95
2022-08-17T06:11:35.853Z,11.35
2022-08-17T06:14:16.390Z,13.23
2022-08-17T06:16:47.658Z,13.77
2022-08-17T06:19:28.203Z,13.85
2022-08-17T06:21:55.418Z,12.93
2022-08-17T06:24:58.208Z,13.75
2022-08-17T06:27:53.566Z,13.00
2022-08-17T06:30:41.357Z,12.90
2022-08-17T06:33:24.126Z,14.00
2022-08-17T06:36:19.583Z,13.43
2022-08-17T06:39:00.001Z,14.55
2022-08-17T06:41:57.099Z,13.13
2022-08-17T06:44:47.540Z,13.10
2022-08-17T06:47:27.961Z,11.73
2022-08-17T06:50:08.528Z,11.55
2022-08-17T06:52:47.394Z,15.02
2022-08-17T06:55:21.511Z,13.00
2022-08-17T06:57:54.389Z,12.32
2022-08-17T07:00:26.971Z,12.75
2022-08-17T07:03:12.798Z,13.93
2022-08-17T07:06:08.629Z,12.43
2022-08-17T07:08:55.625Z,16.85
2022-08-17T07:11:37.628Z,16.90
2022-08-17T07:14:27.710Z,15.35
2022-08-17T07:16:57.074Z,13.07
2022-08-17T07:19:27.459Z,11.25
2022-08-17T07:21:57.668Z,12.35
2022-08-17T07:24:42.093Z,11.80
2022-08-17T07:27:18.435Z,12.95
2022-08-17T07:30:10.813Z,13.57
2022-08-17T07:32:58.880Z,12.43
2022-08-17T07:35:41.270Z,11.32
2022-08-17T07:38:25.664Z,11.13
2022-08-17T07:40:58.036Z,13.10
2022-08-17T07:43:29.622Z,11.25
2022-08-17T07:46:25.061Z,11.13
2022-08-17T07:48:55.923Z,11.80
2022-08-17T07:51:25.847Z,11.30
2022-08-17T07:54:04.803Z,12.18
2022-08-17T07:56:48.705Z,11.30
2022-08-17T07:59:23.195Z,11.15
2022-08-17T08:01:57.641Z,11.73
2022-08-17T08:04:59.204Z,12.55
2022-08-17T08:07:39.953Z,12.38
2022-08-17T08:10:25.327Z,12.10
2022-08-17T08:13:01.609Z,10.88
2022-08-17T08:15:40.109Z,11.65
2022-08-17T08:18:54.473Z,11.20
2022-08-17T08:21:36.778Z,11.65
2022-08-17T08:24:18.628Z,11.55
2022-08-17T08:27:07.326Z,10.68
2022-08-17T08:29:53.003Z,12.10
2022-08-17T08:32:37.920Z,11.35
2022-08-17T08:35:13.945Z,10.90
2022-08-17T08:37:48.481Z,11.45
2022-08-17T08:40:36.896Z,10.43
2022-08-17T08:43:23.971Z,13.18
2022-08-17T08:45:53.420Z,11.25
2022-08-17T08:48:56.329Z,12.25
2022-08-17T08:51:52.186Z,12.77
2022-08-17T08:54:46.465Z,11.10
2022-08-17T08:57:25.410Z,11.30
2022-08-17T08:59:58.289Z,11.60
2022-08-17T09:02:41.446Z,11.75
2022-08-17T09:05:30.222Z,11.10
2022-08-17T09:08:16.084Z,9.50
2022-08-17T09:11:13.813Z,9.65
2022-08-17T09:13:54.706Z,10.07
2022-08-17T09:16:30.887Z,9.98
2022-08-17T09:19:08.824Z,9.13
2022-08-17T09:21:55.115Z,10.15
2022-08-17T09:24:41.080Z,10.68
2022-08-17T09:27:15.808Z,9.80
2022-08-17T09:29:48.969Z,9.30
2022-08-17T09:32:28.708Z,11.68
2022-08-17T09:35:01.860Z,10.52
2022-08-17T09:37:50.716Z,10.15
2022-08-17T09:40:24.675Z,10.50
2022-08-17T09:43:30.749Z,10.85
2022-08-17T09:46:11.832Z,10.23
2022-08-17T09:48:55.507Z,10.45
2022-08-17T09:51:30.749Z,10.50
2022-08-17T09:54:14.795Z,12.88
2022-08-17T09:57:05.932Z,10.55
2022-08-17T09:59:53.494Z,10.55
2022-08-17T10:02:41.956Z,10.13
2022-08-17T10:05:18.184Z,13.43
2022-08-17T10:08:00.224Z,10.10
2022-08-17T10:10:43.803Z,11.15
2022-08-17T10:13:33.232Z,10.20
2022-08-17T10:16:45.636Z,9.77
2022-08-17T10:19:39.617Z,10.40
2022-08-17T10:22:51.165Z,11.88
2022-08-17T10:25:54.080Z,10.43
2022-08-17T10:28:29.576Z,12.52
2022-08-17T10:34:18.989Z,11.38
2022-08-17T10:36:52.726Z,11.97
2022-08-17T10:39:52.113Z,11.60
2022-08-17T10:42:33.388Z,12.02
2022-08-17T10:45:32.364Z,10.80
2022-08-17T10:48:06.349Z,10.35
2022-08-17T10:50:51.886Z,12.98
2022-08-17T10:53:33.952Z,10.75
2022-08-17T10:56:17.591Z,10.82
2022-08-17T10:58:54.615Z,10.18
2022-08-17T11:01:33.989Z,10.10
2022-08-17T11:04:09.476Z,10.73
2022-08-17T11:06:39.032Z,9.68
2022-08-17T11:09:24.625Z,10.73
2022-08-17T11:11:51.423Z,10.55
2022-08-17T11:14:36.498Z,10.70
2022-08-17T11:17:24.852Z,11.43
2022-08-17T11:20:38.316Z,12.70
2022-08-17T11:23:35.629Z,10.75
2022-08-17T11:26:08.796Z,9.77
2022-08-17T11:28:48.844Z,9.88
2022-08-17T11:31:40.346Z,9.95
2022-08-17T11:34:18.995Z,10.40
2022-08-17T11:37:10.282Z,10.20
2022-08-17T11:40:24.620Z,10.10
2022-08-17T11:43:13.511Z,10.82
2022-08-17T11:46:22.007Z,12.50
2022-08-17T11:49:39.984Z,12.05
2022-08-17T11:52:32.697Z,14.98
2022-08-17T11:55:17.595Z,13.93
2022-08-17T11:58:14.548Z,12.35
2022-08-17T12:00:50.212Z,12.55
2022-08-17T12:03:54.289Z,10.13
2022-08-17T12:06:30.415Z,10.30
2022-08-17T12:09:12.862Z,11.13
2022-08-17T12:12:12.538Z,11.10
2022-08-17T12:15:11.371Z,10.90
2022-08-17T12:17:42.673Z,11.10
2022-08-17T12:20:15.723Z,11.73
2022-08-17T12:22:59.439Z,10.88
2022-08-17T12:25:49.663Z,10.70
2022-08-17T12:28:25.614Z,11.00
2022-08-17T12:30:53.239Z,11.45
2022-08-17T12:33:27.918Z,10.43
2022-08-17T12:36:07.611Z,10.32
2022-08-17T12:38:37.817Z,11.43
2022-08-17T12:41:36.989Z,9.95
2022-08-17T12:44:06.714Z,10.00
2022-08-17T12:46:55.610Z,11.23
2022-08-17T12:49:30.158Z,10.75
2022-08-17T12:52:19.879Z,10.50
2022-08-17T12:55:00.613Z,10.65
2022-08-17T12:57:49.214Z,12.20
2022-08-17T13:02:53.558Z,10.50
2022-08-17T13:05:38.308Z,10.52
2022-08-17T13:08:13.608Z,9.63
2022-08-17T13:10:40.709Z,9.35
2022-08-17T13:13:41.408Z,9.50
2022-08-17T13:16:17.853Z,9.00
2022-08-17T13:18:46.980Z,9.52
2022-08-17T13:21:19.608Z,10.10
2022-08-17T13:24:05.113Z,10.02
2022-08-17T13:26:32.142Z,9.90
2022-08-17T13:29:00.274Z,10.15
2022-08-17T13:31:30.272Z,10.88
2022-08-17T13:34:29.895Z,10.55
2022-08-17T13:37:29.828Z,10.90
2022-08-17T13:40:19.595Z,11.25
2022-08-17T13:42:54.076Z,10.93
2022-08-17T13:45:36.103Z,10.30
2022-08-17T13:48:06.496Z,10.15
2022-08-17T13:50:33.899Z,10.15
2022-08-17T13:53:00.916Z,12.07
2022-08-17T13:55:30.084Z,11.32
2022-08-17T13:58:03.653Z,11.88
2022-08-17T14:00:36.631Z,10.27
2022-08-17T14:03:05.370Z,10.48
2022-08-17T14:05:33.926Z,9.95
2022-08-17T14:08:06.538Z,10.60
2022-08-17T14:10:36.471Z,10.50
2022-08-17T14:15:54.615Z,10.77
2022-08-17T14:18:19.098Z,10.10
2022-08-17T14:21:08.558Z,10.63
2022-08-17T14:23:36.721Z,11.60
2022-08-17T14:26:03.721Z,10.40
2022-08-17T14:28:30.739Z,9.98
2022-08-17T14:31:00.501Z,10.38
2022-08-17T14:33:28.544Z,10.60
2022-08-17T14:35:56.183Z,10.32
2022-08-17T14:38:23.521Z,10.13
2022-08-17T14:40:50.465Z,10.35
2022-08-17T14:43:18.195Z,10.27
2022-08-17T14:45:45.056Z,11.13
2022-08-17T14:48:12.030Z,10.77
2022-08-17T14:50:42.041Z,10.93
2022-08-17T14:53:12.249Z,10.05
2022-08-17T14:55:40.609Z,10.20
2022-08-17T14:58:09.163Z,11.90
2022-08-17T15:00:37.364Z,10.60
2022-08-17T15:03:04.467Z,11.05
2022-08-17T15:05:35.125Z,10.00
2022-08-17T15:08:03.236Z,9.90
2022-08-17T15:10:30.910Z,10.90
2022-08-17T15:12:58.553Z,10.05
2022-08-17T15:15:26.034Z,9.45
2022-08-17T15:17:53.055Z,10.50
2022-08-17T15:20:24.020Z,10.30
2022-08-17T15:22:55.430Z,10.40
2022-08-17T15:25:24.413Z,11.60
2022-08-17T15:27:51.669Z,10.87
2022-08-17T15:30:18.837Z,10.48
2022-08-17T15:32:51.060Z,10.80
2022-08-17T15:35:27.213Z,11.18
2022-08-17T15:38:06.252Z,10.85
2022-08-17T15:43:11.069Z,11.77
2022-08-17T15:45:38.041Z,11.27
2022-08-17T15:48:05.005Z,10.95
2022-08-17T15:50:31.974Z,11.20
2022-08-17T15:53:00.809Z,11.60
2022-08-17T15:55:30.058Z,12.33
2022-08-17T15:57:57.115Z,14.02
2022-08-17T16:00:24.271Z,10.38
2022-08-17T16:03:46.395Z,12.63
2022-08-17T16:05:38.178Z,13.38
2022-08-17T16:08:07.764Z,11.20
2022-08-17T16:10:35.623Z,11.30
2022-08-17T16:13:04.401Z,11.60
2022-08-17T16:15:31.911Z,11.07
2022-08-17T16:17:59.252Z,10.80
2022-08-17T16:20:26.415Z,10.35
2022-08-17T16:22:54.832Z,11.43
2022-08-17T16:25:50.414Z,11.23
2022-08-17T16:28:17.006Z,11.15
2022-08-17T16:30:43.951Z,9.85
2022-08-17T16:33:12.050Z,11.77
2022-08-17T16:35:39.067Z,10.20
2022-08-17T16:38:07.026Z,12.43
2022-08-17T16:40:35.970Z,10.93
2022-08-17T16:43:03.346Z,9.52
2022-08-17T16:45:36.787Z,10.50
2022-08-17T16:48:04.509Z,10.05
2022-08-17T16:50:32.885Z,10.75
2022-08-17T16:53:10.873Z,9.98
2022-08-17T16:55:38.376Z,9.80
2022-08-17T16:58:06.526Z,10.27
2022-08-17T17:00:34.382Z,10.52
2022-08-17T17:03:19.726Z,11.00
2022-08-17T17:06:01.727Z,12.45
2022-08-17T17:08:38.411Z,12.77
2022-08-17T17:11:37.343Z,10.40
2022-08-17T17:14:09.549Z,11.18
2022-08-17T17:16:55.872Z,10.32
2022-08-17T17:19:35.630Z,9.80
2022-08-17T17:22:07.936Z,9.93
2022-08-17T17:25:01.528Z,12.02
2022-08-17T17:28:06.668Z,11.35
2022-08-17T17:30:45.958Z,11.70
2022-08-17T17:33:34.734Z,11.00
2022-08-17T17:36:07.112Z,9.90
2022-08-17T17:39:06.807Z,10.20
2022-08-17T17:44:11.981Z,11.02
2022-08-17T17:46:42.266Z,11.10
2022-08-17T17:49:10.749Z,10.02
2022-08-17T17:52:06.484Z,11.15
2022-08-17T17:55:27.118Z,11.57
2022-08-17T17:58:32.228Z,13.27
2022-08-17T18:01:24.378Z,10.95
2022-08-17T18:04:18.919Z,10.40
2022-08-17T18:07:02.339Z,10.18
2022-08-17T18:09:41.227Z,10.85
2022-08-17T18:12:35.249Z,12.93
2022-08-17T18:15:21.510Z,11.88
2022-08-17T18:18:40.249Z,11.98
2022-08-17T18:21:19.074Z,13.13
2022-08-17T18:24:07.140Z,11.00
2022-08-17T18:26:39.587Z,10.95
2022-08-17T18:29:40.606Z,11.68
2022-08-17T18:32:19.273Z,11.55
2022-08-17T18:34:49.042Z,10.52
2022-08-17T18:37:37.181Z,10.65
2022-08-17T18:40:21.819Z,10.73
2022-08-17T18:43:00.885Z,10.70
2022-08-17T18:45:40.908Z,12.70
2022-08-17T18:48:18.433Z,11.43
2022-08-17T18:50:45.474Z,10.07
2022-08-17T18:53:37.728Z,10.55
2022-08-17T18:56:16.425Z,10.73
2022-08-17T18:58:50.475Z,11.75
2022-08-17T19:01:21.412Z,13.93
2022-08-17T19:04:34.668Z,11.90
2022-08-17T19:07:07.494Z,12.60
2022-08-17T19:09:38.635Z,13.38
2022-08-17T19:12:10.361Z,12.38
2022-08-17T19:14:37.169Z,12.13
2022-08-17T19:17:18.718Z,10.98
2022-08-17T19:20:44.799Z,11.20
2022-08-17T19:23:39.352Z,11.48
2022-08-17T19:26:53.637Z,11.95
2022-08-17T19:29:22.121Z,11.73
2022-08-17T19:31:49.586Z,11.68
2022-08-17T19:34:33.387Z,13.77
2022-08-17T19:37:09.935Z,11.65
2022-08-17T19:39:59.629Z,11.52
2022-08-17T19:45:32.981Z,11.15
2022-08-17T19:48:16.793Z,11.10
2022-08-17T19:50:47.385Z,11.68
2022-08-17T19:54:01.510Z,11.15
2022-08-17T19:56:44.923Z,10.90
2022-08-17T19:59:49.555Z,14.63
2022-08-17T20:02:48.684Z,11.93
2022-08-17T20:05:18.265Z,12.02
2022-08-17T20:07:53.891Z,13.13
2022-08-17T20:10:29.132Z,11.95
2022-08-17T20:13:01.829Z,12.30
2022-08-17T20:15:31.043Z,11.43
2022-08-17T20:18:01.263Z,11.20
2022-08-17T20:20:37.098Z,10.80
2022-08-17T20:23:09.988Z,11.82
2022-08-17T20:25:48.320Z,11.23
2022-08-17T20:28:15.240Z,13.07
2022-08-17T20:30:43.792Z,11.85
2022-08-17T20:33:29.967Z,11.07
2022-08-17T20:36:03.696Z,11.80
2022-08-17T20:38:46.259Z,10.63
2022-08-17T20:41:22.317Z,11.32
2022-08-17T20:43:55.796Z,12.70
2022-08-17T20:46:38.203Z,11.57
2022-08-17T20:49:11.200Z,12.60
2022-08-17T20:52:00.557Z,12.05
2022-08-17T20:54:50.815Z,11.85
2022-08-17T20:57:32.850Z,11.67
2022-08-17T21:00:14.388Z,11.27
2022-08-17T21:02:49.797Z,11.32
2022-08-17T21:05:34.321Z,13.43
2022-08-17T21:08:16.122Z,12.05
2022-08-17T21:10:46.108Z,10.70
2022-08-17T21:13:14.042Z,11.20
2022-08-17T21:15:42.497Z,12.93
2022-08-17T21:18:18.711Z,12.07
2022-08-17T21:21:00.404Z,12.25
2022-08-17T21:23:53.256Z,12.48
2022-08-17T21:26:50.328Z,11.20
2022-08-17T21:29:31.423Z,12.50
2022-08-17T21:32:00.670Z,11.55
2022-08-17T21:34:44.595Z,12.10
2022-08-17T21:37:21.041Z,11.02
2022-08-17T21:40:01.653Z,9.93
2022-08-17T21:42:32.236Z,10.52
2022-08-17T21:45:20.062Z,9.55
2022-08-17T21:48:11.616Z,10.23
2022-08-17T21:50:41.615Z,9.27
2022-08-17T21:53:12.267Z,9.98
2022-08-17T21:55:39.336Z,9.10
2022-08-17T21:58:28.280Z,10.00
2022-08-17T22:01:20.277Z,9.40
2022-08-17T22:04:00.309Z,10.27
2022-08-17T22:09:43.351Z,10.02
2022-08-17T22:12:15.516Z,9.32
2022-08-17T22:14:52.960Z,9.60
2022-08-17T22:17:30.107Z,9.27
2022-08-17T22:20:17.067Z,9.90
2022-08-17T22:23:05.340Z,9.23
2022-08-17T22:26:00.344Z,9.55
2022-08-17T22:28:47.594Z,8.93
2022-08-17T22:31:17.642Z,8.95
2022-08-17T22:34:04.620Z,9.65
2022-08-17T22:36:33.829Z,9.30
2022-08-17T22:39:22.445Z,9.68
2022-08-17T22:42:01.000Z,9.48
2022-08-17T22:44:36.639Z,9.57
2022-08-17T22:47:15.191Z,9.85
2022-08-17T22:49:53.790Z,10.30
2022-08-17T22:53:01.583Z,10.18
2022-08-17T22:55:49.929Z,9.30
2022-08-17T22:59:02.002Z,10.00
2022-08-17T23:01:34.941Z,9.57
2022-08-17T23:04:07.278Z,10.15
2022-08-17T23:06:36.647Z,8.60
2022-08-17T23:09:06.710Z,9.13
2022-08-17T23:11:49.863Z,9.05
2022-08-17T23:14:20.267Z,9.15
2022-08-17T23:19:17.863Z,9.40
2022-08-17T23:21:45.302Z,9.25
2022-08-17T23:24:21.277Z,9.40
2022-08-17T23:26:48.094Z,10.48
2022-08-17T23:29:15.030Z,9.40
2022-08-17T23:31:42.105Z,10.48
2022-08-17T23:34:12.787Z,10.25
2022-08-17T23:36:39.659Z,10.70
2022-08-17T23:39:07.450Z,11.05
2022-08-17T23:41:38.771Z,10.45
2022-08-17T23:44:06.622Z,9.63
2022-08-17T23:46:34.845Z,10.30
2022-08-17T23:49:01.961Z,10.30
2022-08-17T23:51:34.794Z,10.15
2022-08-17T23:54:12.743Z,9.07
2022-08-17T23:56:46.750Z,9.48
2022-08-17T23:59:15.644Z,9.57
